sensor_id;sensor_type;location;lat;lon;timestamp;P1;durP1;ratioP1;P2;durP2;ratioP2
9489;SDS011;4783;42.734;23.288;2023-08-08T06:32:57;7.50;;;4.20;;
9489;SDS011;4783;42.734;23.288;2023-08-08T06:35:22;5.30;;;4.20;;
9489;SDS011;4783;42.734;23.288;2023-08-08T06:37:48;5.45;;;4.05;;
9489;SDS011;4783;42.734;23.288;2023-08-08T07:03:14;3.33;;;3.10;;
9489;SDS011;4783;42.734;23.288;2023-08-08T07:33:58;3.40;;;2.92;;
9489;SDS011;4783;42.734;23.288;2023-08-08T07:51:14;2.85;;;2.65;;
9489;SDS011;4783;42.734;23.288;2023-08-08T08:02:07;7.07;;;2.60;;
9489;SDS011;4783;42.734;23.288;2023-08-08T08:11:08;3.08;;;2.70;;
9489;SDS011;4783;42.734;23.288;2023-08-08T08:21:37;4.03;;;2.47;;
9489;SDS011;4783;42.734;23.288;2023-08-08T08:30:50;8.23;;;2.85;;
9489;SDS011;4783;42.734;23.288;2023-08-08T08:33:16;4.00;;;3.08;;
9489;SDS011;4783;42.734;23.288;2023-08-08T08:35:41;5.40;;;3.10;;
9489;SDS011;4783;42.734;23.288;2023-08-08T08:38:06;5.78;;;3.10;;
9489;SDS011;4783;42.734;23.288;2023-08-08T08:40:36;5.43;;;3.03;;
9489;SDS011;4783;42.734;23.288;2023-08-08T08:43:01;5.90;;;3.33;;
9489;SDS011;4783;42.734;23.288;2023-08-08T08:51:50;3.60;;;2.60;;
9489;SDS011;4783;42.734;23.288;2023-08-08T08:54:15;2.95;;;2.70;;
9489;SDS011;4783;42.734;23.288;2023-08-08T08:56:41;3.72;;;3.03;;
9489;SDS011;4783;42.734;23.288;2023-08-08T09:02:10;4.35;;;2.35;;
9489;SDS011;4783;42.734;23.288;2023-08-08T09:04:36;2.38;;;2.17;;
9489;SDS011;4783;42.734;23.288;2023-08-08T09:07:01;3.38;;;2.40;;
9489;SDS011;4783;42.734;23.288;2023-08-08T09:09:30;4.78;;;2.47;;
9489;SDS011;4783;42.734;23.288;2023-08-08T09:11:56;3.70;;;2.20;;
9489;SDS011;4783;42.734;23.288;2023-08-08T09:14:22;2.30;;;2.10;;
9489;SDS011;4783;42.734;23.288;2023-08-08T09:16:47;3.15;;;2.10;;
9489;SDS011;4783;42.734;23.288;2023-08-08T09:19:13;6.35;;;2.20;;
9489;SDS011;4783;42.734;23.288;2023-08-08T09:21:39;2.67;;;2.28;;
9489;SDS011;4783;42.734;23.288;2023-08-08T09:24:04;3.67;;;2.20;;
9489;SDS011;4783;42.734;23.288;2023-08-08T09:26:29;2.38;;;2.15;;
9489;SDS011;4783;42.734;23.288;2023-08-08T09:28:55;2.70;;;2.10;;
9489;SDS011;4783;42.734;23.288;2023-08-08T09:31:20;3.28;;;2.97;;
9489;SDS011;4783;42.734;23.288;2023-08-08T09:33:45;2.30;;;2.10;;
9489;SDS011;4783;42.734;23.288;2023-08-08T09:36:16;4.88;;;2.22;;
9489;SDS011;4783;42.734;23.288;2023-08-08T09:38:41;17.23;;;2.42;;
9489;SDS011;4783;42.734;23.288;2023-08-08T09:41:07;2.67;;;2.00;;
9489;SDS011;4783;42.734;23.288;2023-08-08T09:43:32;2.47;;;2.28;;
9489;SDS011;4783;42.734;23.288;2023-08-08T09:45:58;2.70;;;2.50;;
9489;SDS011;4783;42.734;23.288;2023-08-08T09:48:23;4.13;;;2.75;;
9489;SDS011;4783;42.734;23.288;2023-08-08T09:50:54;3.78;;;2.30;;
9489;SDS011;4783;42.734;23.288;2023-08-08T09:53:19;3.53;;;2.45;;
9489;SDS011;4783;42.734;23.288;2023-08-08T09:55:45;2.42;;;2.22;;
9489;SDS011;4783;42.734;23.288;2023-08-08T09:58:10;2.88;;;2.40;;
9489;SDS011;4783;42.734;23.288;2023-08-08T10:00:36;3.45;;;2.60;;
9489;SDS011;4783;42.734;23.288;2023-08-08T10:03:02;2.85;;;2.60;;
9489;SDS011;4783;42.734;23.288;2023-08-08T10:05:27;2.67;;;2.47;;
9489;SDS011;4783;42.734;23.288;2023-08-08T10:07:53;2.92;;;2.58;;
9489;SDS011;4783;42.734;23.288;2023-08-08T10:10:18;3.85;;;2.40;;
9489;SDS011;4783;42.734;23.288;2023-08-08T10:12:44;4.32;;;2.63;;
9489;SDS011;4783;42.734;23.288;2023-08-08T10:15:09;2.95;;;2.65;;
9489;SDS011;4783;42.734;23.288;2023-08-08T10:17:38;2.50;;;2.30;;
9489;SDS011;4783;42.734;23.288;2023-08-08T10:20:04;4.70;;;2.45;;
9489;SDS011;4783;42.734;23.288;2023-08-08T10:22:49;4.38;;;2.30;;
9489;SDS011;4783;42.734;23.288;2023-08-08T10:25:23;3.33;;;2.70;;
9489;SDS011;4783;42.734;23.288;2023-08-08T10:27:48;2.83;;;2.30;;
9489;SDS011;4783;42.734;23.288;2023-08-08T10:30:14;2.30;;;2.10;;
9489;SDS011;4783;42.734;23.288;2023-08-08T10:32:41;3.03;;;2.45;;
9489;SDS011;4783;42.734;23.288;2023-08-08T10:35:07;2.65;;;2.05;;
9489;SDS011;4783;42.734;23.288;2023-08-08T10:37:34;2.78;;;2.20;;
9489;SDS011;4783;42.734;23.288;2023-08-08T10:40:00;3.97;;;1.85;;
9489;SDS011;4783;42.734;23.288;2023-08-08T10:42:30;2.17;;;1.98;;
9489;SDS011;4783;42.734;23.288;2023-08-08T10:44:56;1.92;;;1.80;;
9489;SDS011;4783;42.734;23.288;2023-08-08T10:47:25;5.68;;;1.98;;
9489;SDS011;4783;42.734;23.288;2023-08-08T10:50:02;2.40;;;1.90;;
9489;SDS011;4783;42.734;23.288;2023-08-08T10:52:28;3.55;;;1.85;;
9489;SDS011;4783;42.734;23.288;2023-08-08T10:54:53;6.03;;;1.92;;
9489;SDS011;4783;42.734;23.288;2023-08-08T10:57:20;3.13;;;1.95;;
9489;SDS011;4783;42.734;23.288;2023-08-08T10:59:45;2.17;;;1.90;;
9489;SDS011;4783;42.734;23.288;2023-08-08T11:02:10;3.25;;;2.30;;
9489;SDS011;4783;42.734;23.288;2023-08-08T11:04:36;2.42;;;2.13;;
9489;SDS011;4783;42.734;23.288;2023-08-08T11:07:01;2.30;;;2.10;;
9489;SDS011;4783;42.734;23.288;2023-08-08T11:09:26;2.78;;;2.08;;
9489;SDS011;4783;42.734;23.288;2023-08-08T11:11:52;2.92;;;2.40;;
9489;SDS011;4783;42.734;23.288;2023-08-08T11:14:18;2.35;;;2.00;;
9489;SDS011;4783;42.734;23.288;2023-08-08T11:16:44;2.47;;;1.88;;
9489;SDS011;4783;42.734;23.288;2023-08-08T11:19:10;7.80;;;2.17;;
9489;SDS011;4783;42.734;23.288;2023-08-08T11:21:45;5.68;;;3.60;;
9489;SDS011;4783;42.734;23.288;2023-08-08T11:24:11;2.53;;;1.90;;
9489;SDS011;4783;42.734;23.288;2023-08-08T11:26:37;5.78;;;1.58;;
9489;SDS011;4783;42.734;23.288;2023-08-08T11:29:03;2.72;;;1.80;;
9489;SDS011;4783;42.734;23.288;2023-08-08T11:31:29;2.42;;;1.73;;
9489;SDS011;4783;42.734;23.288;2023-08-08T11:33:54;2.80;;;1.85;;
9489;SDS011;4783;42.734;23.288;2023-08-08T11:36:20;2.60;;;1.70;;
9489;SDS011;4783;42.734;23.288;2023-08-08T11:38:47;1.50;;;1.40;;
9489;SDS011;4783;42.734;23.288;2023-08-08T11:41:13;2.15;;;1.60;;
9489;SDS011;4783;42.734;23.288;2023-08-08T11:43:43;1.52;;;1.40;;
9489;SDS011;4783;42.734;23.288;2023-08-08T11:46:09;4.97;;;2.70;;
9489;SDS011;4783;42.734;23.288;2023-08-08T11:48:34;1.38;;;1.27;;
9489;SDS011;4783;42.734;23.288;2023-08-08T11:51:02;1.73;;;1.50;;
9489;SDS011;4783;42.734;23.288;2023-08-08T11:53:28;2.72;;;2.25;;
9489;SDS011;4783;42.734;23.288;2023-08-08T11:55:53;5.60;;;2.00;;
9489;SDS011;4783;42.734;23.288;2023-08-08T11:58:18;5.47;;;1.52;;
9489;SDS011;4783;42.734;23.288;2023-08-08T12:00:44;2.00;;;1.80;;
9489;SDS011;4783;42.734;23.288;2023-08-08T12:03:12;2.25;;;1.50;;
9489;SDS011;4783;42.734;23.288;2023-08-08T12:05:39;2.38;;;1.75;;
9489;SDS011;4783;42.734;23.288;2023-08-08T12:08:05;2.75;;;1.77;;
9489;SDS011;4783;42.734;23.288;2023-08-08T12:10:31;6.32;;;1.90;;
9489;SDS011;4783;42.734;23.288;2023-08-08T12:12:57;6.43;;;1.95;;
9489;SDS011;4783;42.734;23.288;2023-08-08T12:15:42;2.28;;;1.52;;
9489;SDS011;4783;42.734;23.288;2023-08-08T12:18:07;1.92;;;1.60;;
9489;SDS011;4783;42.734;23.288;2023-08-08T12:20:33;3.67;;;1.70;;
9489;SDS011;4783;42.734;23.288;2023-08-08T12:22:58;3.42;;;1.70;;
9489;SDS011;4783;42.734;23.288;2023-08-08T12:25:24;3.20;;;1.60;;
9489;SDS011;4783;42.734;23.288;2023-08-08T12:27:49;3.45;;;1.35;;
9489;SDS011;4783;42.734;23.288;2023-08-08T12:30:14;4.85;;;1.70;;
9489;SDS011;4783;42.734;23.288;2023-08-08T12:32:40;1.75;;;1.40;;
9489;SDS011;4783;42.734;23.288;2023-08-08T12:35:05;2.38;;;1.33;;
9489;SDS011;4783;42.734;23.288;2023-08-08T12:37:31;1.80;;;1.60;;
9489;SDS011;4783;42.734;23.288;2023-08-08T12:39:56;3.63;;;1.38;;
9489;SDS011;4783;42.734;23.288;2023-08-08T12:42:22;3.80;;;1.77;;
9489;SDS011;4783;42.734;23.288;2023-08-08T12:44:47;3.35;;;1.50;;
9489;SDS011;4783;42.734;23.288;2023-08-08T12:47:16;6.35;;;1.50;;
9489;SDS011;4783;42.734;23.288;2023-08-08T12:49:41;1.50;;;1.40;;
9489;SDS011;4783;42.734;23.288;2023-08-08T12:52:06;2.25;;;1.80;;
9489;SDS011;4783;42.734;23.288;2023-08-08T12:54:32;3.35;;;1.55;;
9489;SDS011;4783;42.734;23.288;2023-08-08T12:56:57;1.75;;;1.48;;
9489;SDS011;4783;42.734;23.288;2023-08-08T12:59:22;1.75;;;1.40;;
9489;SDS011;4783;42.734;23.288;2023-08-08T13:01:47;2.20;;;1.40;;
9489;SDS011;4783;42.734;23.288;2023-08-08T13:04:13;1.50;;;1.30;;
9489;SDS011;4783;42.734;23.288;2023-08-08T13:06:38;5.75;;;1.70;;
9489;SDS011;4783;42.734;23.288;2023-08-08T13:09:03;3.80;;;1.67;;
9489;SDS011;4783;42.734;23.288;2023-08-08T13:11:28;3.88;;;1.83;;
9489;SDS011;4783;42.734;23.288;2023-08-08T13:13:54;5.40;;;2.15;;
9489;SDS011;4783;42.734;23.288;2023-08-08T13:16:19;7.07;;;1.83;;
9489;SDS011;4783;42.734;23.288;2023-08-08T13:18:44;8.68;;;2.30;;
9489;SDS011;4783;42.734;23.288;2023-08-08T13:21:10;3.95;;;1.60;;
9489;SDS011;4783;42.734;23.288;2023-08-08T13:23:35;2.70;;;1.67;;
9489;SDS011;4783;42.734;23.288;2023-08-08T13:26:00;6.88;;;1.90;;
9489;SDS011;4783;42.734;23.288;2023-08-08T13:28:26;1.85;;;1.60;;
9489;SDS011;4783;42.734;23.288;2023-08-08T13:30:52;5.13;;;2.08;;
9489;SDS011;4783;42.734;23.288;2023-08-08T13:33:17;4.72;;;1.85;;
9489;SDS011;4783;42.734;23.288;2023-08-08T13:35:42;3.25;;;1.98;;
9489;SDS011;4783;42.734;23.288;2023-08-08T13:38:07;2.13;;;1.58;;
9489;SDS011;4783;42.734;23.288;2023-08-08T13:40:39;3.13;;;1.50;;
9489;SDS011;4783;42.734;23.288;2023-08-08T13:43:04;3.03;;;1.77;;
9489;SDS011;4783;42.734;23.288;2023-08-08T13:45:29;7.22;;;1.90;;
9489;SDS011;4783;42.734;23.288;2023-08-08T13:47:55;1.67;;;1.50;;
9489;SDS011;4783;42.734;23.288;2023-08-08T13:50:20;3.30;;;1.58;;
9489;SDS011;4783;42.734;23.288;2023-08-08T13:52:45;2.35;;;1.60;;
9489;SDS011;4783;42.734;23.288;2023-08-08T13:55:11;1.73;;;1.20;;
9489;SDS011;4783;42.734;23.288;2023-08-08T13:57:36;4.20;;;1.40;;
9489;SDS011;4783;42.734;23.288;2023-08-08T14:00:02;4.97;;;1.67;;
9489;SDS011;4783;42.734;23.288;2023-08-08T14:02:28;3.22;;;1.58;;
9489;SDS011;4783;42.734;23.288;2023-08-08T14:04:54;3.63;;;1.52;;
9489;SDS011;4783;42.734;23.288;2023-08-08T14:07:19;4.15;;;1.70;;
9489;SDS011;4783;42.734;23.288;2023-08-08T14:09:46;2.08;;;1.77;;
9489;SDS011;4783;42.734;23.288;2023-08-08T14:12:11;1.70;;;1.20;;
9489;SDS011;4783;42.734;23.288;2023-08-08T14:14:36;2.28;;;1.45;;
9489;SDS011;4783;42.734;23.288;2023-08-08T14:17:02;2.58;;;1.67;;
9489;SDS011;4783;42.734;23.288;2023-08-08T14:19:27;4.80;;;1.50;;
9489;SDS011;4783;42.734;23.288;2023-08-08T14:21:52;3.90;;;1.30;;
9489;SDS011;4783;42.734;23.288;2023-08-08T14:24:17;1.67;;;1.33;;
9489;SDS011;4783;42.734;23.288;2023-08-08T14:26:43;5.45;;;1.50;;
9489;SDS011;4783;42.734;23.288;2023-08-08T14:29:08;4.15;;;1.55;;
9489;SDS011;4783;42.734;23.288;2023-08-08T14:31:33;3.70;;;1.40;;
9489;SDS011;4783;42.734;23.288;2023-08-08T14:33:59;3.42;;;1.55;;
9489;SDS011;4783;42.734;23.288;2023-08-08T14:36:24;6.63;;;1.40;;
9489;SDS011;4783;42.734;23.288;2023-08-08T14:38:50;3.42;;;2.13;;
9489;SDS011;4783;42.734;23.288;2023-08-08T14:41:15;4.32;;;1.40;;
9489;SDS011;4783;42.734;23.288;2023-08-08T14:43:40;1.52;;;1.00;;
9489;SDS011;4783;42.734;23.288;2023-08-08T14:46:05;4.30;;;1.15;;
9489;SDS011;4783;42.734;23.288;2023-08-08T14:48:31;1.50;;;0.93;;
9489;SDS011;4783;42.734;23.288;2023-08-08T14:50:56;6.30;;;1.30;;
9489;SDS011;4783;42.734;23.288;2023-08-08T14:53:21;6.90;;;1.20;;
9489;SDS011;4783;42.734;23.288;2023-08-08T14:55:47;3.73;;;1.10;;
9489;SDS011;4783;42.734;23.288;2023-08-08T14:58:13;2.15;;;1.13;;
9489;SDS011;4783;42.734;23.288;2023-08-08T15:00:38;2.28;;;0.90;;
9489;SDS011;4783;42.734;23.288;2023-08-08T15:03:03;14.48;;;1.52;;
9489;SDS011;4783;42.734;23.288;2023-08-08T15:05:30;6.38;;;1.00;;
9489;SDS011;4783;42.734;23.288;2023-08-08T15:07:55;2.65;;;0.80;;
9489;SDS011;4783;42.734;23.288;2023-08-08T15:10:21;3.47;;;1.20;;
9489;SDS011;4783;42.734;23.288;2023-08-08T15:12:46;1.07;;;0.93;;
9489;SDS011;4783;42.734;23.288;2023-08-08T15:15:12;2.38;;;1.05;;
9489;SDS011;4783;42.734;23.288;2023-08-08T15:17:37;2.90;;;1.05;;
9489;SDS011;4783;42.734;23.288;2023-08-08T15:20:02;1.52;;;0.90;;
9489;SDS011;4783;42.734;23.288;2023-08-08T15:22:28;7.00;;;1.05;;
9489;SDS011;4783;42.734;23.288;2023-08-08T15:24:53;4.70;;;1.00;;
9489;SDS011;4783;42.734;23.288;2023-08-08T15:27:18;4.03;;;0.85;;
9489;SDS011;4783;42.734;23.288;2023-08-08T15:29:44;2.63;;;0.90;;
9489;SDS011;4783;42.734;23.288;2023-08-08T15:32:10;2.97;;;1.10;;
9489;SDS011;4783;42.734;23.288;2023-08-08T15:34:35;3.78;;;1.35;;
9489;SDS011;4783;42.734;23.288;2023-08-08T15:37:01;5.30;;;1.15;;
9489;SDS011;4783;42.734;23.288;2023-08-08T15:39:27;2.00;;;0.98;;
9489;SDS011;4783;42.734;23.288;2023-08-08T15:41:52;4.47;;;1.30;;
